createdAt,value
2022-08-17T00:00:34.570Z,5.30
2022-08-17T00:03:02.904Z,6.20
2022-08-17T00:05:33.367Z,6.10
2022-08-17T00:08:00.875Z,6.30
2022-08-17T00:10:28.367Z,5.82
2022-08-17T00:13:05.649Z,6.18
2022-08-17T00:15:35.931Z,6.38
2022-08-17T00:18:03.569Z,5.95
2022-08-17T00:20:50.896Z,5.53
2022-08-17T00:23:18.532Z,6.25
2022-08-17T00:25:47.277Z,8.40
2022-08-17T00:28:16.391Z,7.05
2022-08-17T00:30:52.922Z,5.57
2022-08-17T00:33:29.441Z,8.68
2022-08-17T00:35:59.760Z,6.25
2022-08-17T00:38:29.122Z,5.72
2022-08-17T00:41:00.169Z,6.05
2022-08-17T00:43:44.512Z,5.70
2022-08-17T00:46:21.319Z,6.20
2022-08-17T00:48:49.796Z,9.43
2022-08-17T00:51:39.040Z,8.70
2022-08-17T00:54:14.626Z,10.05
2022-08-17T00:57:10.739Z,6.95
2022-08-17T00:59:41.877Z,6.50
2022-08-17T01:02:13.044Z,6.47
2022-08-17T01:04:40.634Z,6.85
2022-08-17T01:07:08.591Z,7.63
2022-08-17T01:09:36.056Z,6.93
2022-08-17T01:12:03.617Z,6.22
2022-08-17T01:14:31.118Z,6.53
2022-08-17T01:16:58.581Z,9.23
2022-08-17T01:19:29.913Z,9.80
2022-08-17T01:22:08.334Z,9.50
2022-08-17T01:24:41.572Z,6.88
2022-08-17T01:27:10.788Z,8.55
2022-08-17T01:29:41.698Z,6.70
2022-08-17T01:32:10.027Z,6.13
2022-08-17T01:34:43.691Z,6.60
2022-08-17T01:37:18.998Z,5.50
2022-08-17T01:39:53.119Z,6.43
2022-08-17T01:42:42.399Z,8.35
2022-08-17T01:45:16.834Z,10.05
2022-08-17T01:47:44.665Z,6.22
2022-08-17T01:50:16.174Z,7.43
2022-08-17T01:52:45.850Z,6.32
2022-08-17T01:55:16.349Z,7.40
2022-08-17T01:57:45.641Z,7.68
2022-08-17T02:00:14.586Z,6.90
2022-08-17T02:02:42.849Z,6.20
2022-08-17T02:05:10.453Z,6.30
2022-08-17T02:07:59.424Z,7.32
2022-08-17T02:10:25.345Z,7.55
2022-08-17T02:13:02.864Z,6.03
2022-08-17T02:15:30.521Z,8.82
2022-08-17T02:17:57.977Z,6.38
2022-08-17T02:20:41.620Z,7.32
2022-08-17T02:23:13.338Z,7.97
2022-08-17T02:25:43.566Z,5.47
2022-08-17T02:28:12.463Z,5.93
2022-08-17T02:30:59.932Z,5.60
2022-08-17T02:33:41.497Z,6.57
2022-08-17T02:36:13.491Z,7.47
2022-08-17T02:38:41.701Z,9.73
2022-08-17T02:41:09.669Z,5.88
2022-08-17T02:43:37.244Z,5.78
2022-08-17T02:46:04.643Z,6.85
2022-08-17T02:48:32.147Z,7.55
2022-08-17T02:51:01.217Z,7.40
2022-08-17T02:53:31.812Z,6.90
2022-08-17T02:56:04.153Z,6.85
2022-08-17T02:58:35.283Z,7.57
2022-08-17T03:01:06.550Z,13.35
2022-08-17T03:03:35.214Z,10.57
2022-08-17T03:06:03.567Z,6.25
2022-08-17T03:08:31.304Z,6.93
2022-08-17T03:10:58.755Z,7.70
2022-08-17T03:13:27.609Z,7.78
2022-08-17T03:15:55.371Z,8.98
2022-08-17T03:18:25.314Z,6.78
2022-08-17T03:20:59.306Z,7.55
2022-08-17T03:23:29.739Z,7.13
2022-08-17T03:25:59.533Z,8.68
2022-08-17T03:28:28.326Z,6.57
2022-08-17T03:30:55.909Z,6.95
2022-08-17T03:33:23.518Z,9.50
2022-08-17T03:35:51.308Z,6.45
2022-08-17T03:38:19.218Z,10.32
2022-08-17T03:40:57.603Z,7.28
2022-08-17T03:43:29.550Z,8.73
2022-08-17T03:46:34.372Z,6.65
2022-08-17T03:49:24.922Z,9.60
2022-08-17T03:52:13.106Z,7.95
2022-08-17T03:55:00.845Z,8.45
2022-08-17T03:57:29.235Z,7.65
2022-08-17T03:59:58.030Z,8.67
2022-08-17T04:02:30.107Z,6.38
2022-08-17T04:04:58.607Z,8.07
2022-08-17T04:07:29.698Z,7.40
2022-08-17T04:09:58.219Z,8.00
2022-08-17T04:12:26.708Z,9.43
2022-08-17T04:14:57.295Z,8.23
2022-08-17T04:17:27.917Z,10.83
2022-08-17T04:19:56.356Z,7.00
2022-08-17T04:22:30.009Z,8.13
2022-08-17T04:25:16.767Z,7.07
2022-08-17T04:27:44.509Z,8.70
2022-08-17T04:30:12.685Z,7.53
2022-08-17T04:33:06.185Z,11.48
2022-08-17T04:35:38.137Z,6.80
2022-08-17T04:38:06.896Z,9.60
2022-08-17T04:40:53.034Z,8.73
2022-08-17T04:43:22.493Z,11.40
2022-08-17T04:45:56.654Z,6.00
2022-08-17T04:48:29.809Z,6.93
2022-08-17T04:51:11.390Z,8.80
2022-08-17T04:53:41.243Z,10.33
2022-08-17T04:56:11.648Z,7.72
2022-08-17T04:58:39.484Z,10.13
2022-08-17T05:01:07.553Z,8.70
2022-08-17T05:03:35.195Z,8.20
2022-08-17T05:06:02.453Z,5.72
2022-08-17T05:08:29.855Z,9.55
2022-08-17T05:10:57.195Z,7.93
2022-08-17T05:13:26.663Z,8.57
2022-08-17T05:15:57.288Z,8.90
2022-08-17T05:18:25.595Z,7.70
2022-08-17T05:20:53.378Z,9.55
2022-08-17T05:23:23.131Z,5.55
2022-08-17T05:25:54.715Z,6.72
2022-08-17T05:28:26.572Z,7.05
2022-08-17T05:30:57.646Z,9.40
2022-08-17T05:33:28.282Z,5.20
2022-08-17T05:35:57.707Z,6.75
2022-08-17T05:38:26.801Z,6.70
2022-08-17T05:40:55.167Z,5.18
2022-08-17T05:43:31.729Z,8.40
2022-08-17T05:46:02.031Z,6.13
2022-08-17T05:48:35.554Z,6.47
2022-08-17T05:51:32.641Z,4.93
2022-08-17T05:54:18.329Z,8.55
2022-08-17T05:56:51.116Z,6.38
2022-08-17T05:59:29.428Z,7.32
2022-08-17T06:02:09.553Z,6.35
2022-08-17T06:04:55.016Z,6.10
2022-08-17T06:07:26.998Z,11.57
2022-08-17T06:10:20.868Z,8.20
2022-08-17T06:13:09.237Z,6.05
2022-08-17T06:16:33.521Z,6.95
2022-08-17T06:19:01.500Z,7.40
2022-08-17T06:21:34.677Z,7.00
2022-08-17T06:24:08.702Z,7.38
2022-08-17T06:26:43.208Z,6.68
2022-08-17T06:29:37.327Z,7.97
2022-08-17T06:32:12.111Z,10.13
2022-08-17T06:34:42.129Z,7.95
2022-08-17T06:37:31.249Z,6.93
2022-08-17T06:40:40.042Z,6.70
2022-08-17T06:43:40.291Z,6.35
2022-08-17T06:46:22.853Z,5.25
2022-08-17T06:49:08.560Z,8.38
2022-08-17T06:51:43.372Z,6.70
2022-08-17T06:54:24.623Z,6.25
2022-08-17T06:57:05.744Z,4.82
2022-08-17T06:59:53.256Z,8.15
2022-08-17T07:02:56.470Z,8.43
2022-08-17T07:05:28.849Z,5.13
2022-08-17T07:08:18.679Z,6.50
2022-08-17T07:10:57.400Z,6.50
2022-08-17T07:13:41.646Z,8.18
2022-08-17T07:16:27.519Z,7.57
2022-08-17T07:18:57.654Z,5.65
2022-08-17T07:21:40.980Z,5.20
2022-08-17T07:24:29.632Z,6.07
2022-08-17T07:27:38.240Z,7.05
2022-08-17T07:30:11.269Z,5.82
2022-08-17T07:32:59.935Z,4.45
2022-08-17T07:35:31.310Z,6.13
2022-08-17T07:38:26.902Z,11.63
2022-08-17T07:41:04.996Z,5.70
2022-08-17T07:43:41.703Z,9.63
2022-08-17T09:00:49.323Z,7.03
2022-08-17T09:03:28.084Z,4.88
2022-08-17T09:06:33.237Z,10.25
2022-08-17T09:09:09.790Z,4.65
2022-08-17T09:12:08.706Z,6.80
2022-08-17T09:14:45.341Z,5.10
2022-08-17T09:17:19.497Z,5.03
2022-08-17T09:19:50.194Z,5.55
2022-08-17T09:22:31.610Z,6.15
2022-08-17T09:25:08.198Z,4.45
2022-08-17T09:27:54.200Z,7.15
2022-08-17T09:30:23.834Z,4.15
2022-08-17T09:32:57.423Z,4.90
2022-08-17T09:35:37.534Z,4.00
2022-08-17T09:38:23.240Z,3.75
2022-08-17T09:41:09.569Z,4.07
2022-08-17T09:44:09.535Z,3.72
2022-08-17T09:47:06.867Z,5.13
2022-08-17T09:49:47.595Z,3.88
2022-08-17T09:52:27.623Z,5.80
2022-08-17T09:54:56.895Z,11.82
2022-08-17T09:57:32.326Z,4.57
2022-08-17T10:00:11.949Z,4.90
2022-08-17T10:03:09.921Z,7.18
2022-08-17T10:05:47.191Z,5.72
2022-08-17T10:08:42.821Z,4.22
2022-08-17T10:11:50.254Z,2.63
2022-08-17T10:14:36.237Z,4.32
2022-08-17T10:17:24.614Z,5.40
2022-08-17T10:20:13.006Z,3.78
2022-08-17T10:23:04.925Z,5.78
2022-08-17T10:25:55.890Z,4.30
2022-08-17T10:28:31.062Z,5.30
2022-08-17T10:31:34.361Z,4.50
2022-08-17T10:34:11.443Z,4.22
2022-08-17T10:37:11.296Z,5.20
2022-08-17T10:40:15.508Z,4.88
2022-08-17T10:43:03.410Z,5.32
2022-08-17T10:45:48.519Z,3.53
2022-08-17T10:48:39.993Z,6.03
2022-08-17T10:51:12.678Z,9.07
2022-08-17T10:53:43.462Z,2.90
2022-08-17T10:56:13.675Z,3.00
2022-08-17T10:58:55.654Z,53.00
2022-08-17T11:01:29.652Z,5.43
2022-08-17T11:03:59.148Z,3.45
2022-08-17T11:06:36.504Z,6.95
2022-08-17T11:09:19.986Z,4.63
2022-08-17T11:11:56.093Z,3.60
2022-08-17T11:14:41.301Z,4.18
2022-08-17T11:17:22.651Z,3.35
2022-08-17T11:20:09.625Z,5.30
2022-08-17T11:23:12.939Z,2.75
2022-08-17T11:25:47.139Z,3.85
2022-08-17T11:28:19.279Z,2.40
2022-08-17T11:30:54.101Z,4.50
2022-08-17T11:33:30.535Z,2.72
2022-08-17T11:36:26.377Z,3.08
2022-08-17T11:39:16.530Z,3.13
2022-08-17T11:42:18.052Z,6.10
2022-08-17T11:44:56.961Z,3.10
2022-08-17T11:47:49.523Z,3.55
2022-08-17T11:51:07.290Z,4.15
2022-08-17T11:53:37.673Z,3.40
2022-08-17T11:56:31.763Z,3.05
2022-08-17T11:59:00.857Z,4.05
2022-08-17T12:01:46.396Z,5.10
2022-08-17T12:04:23.094Z,7.00
2022-08-17T12:07:01.824Z,2.60
2022-08-17T12:09:34.635Z,4.05
2022-08-17T12:12:15.007Z,2.90
2022-08-17T12:17:40.615Z,6.03
2022-08-17T12:20:34.967Z,2.60
2022-08-17T12:23:26.266Z,2.97
2022-08-17T12:26:24.959Z,3.55
2022-08-17T12:28:59.709Z,2.88
2022-08-17T12:31:34.687Z,6.28
2022-08-17T12:34:04.273Z,3.85
2022-08-17T12:36:33.615Z,3.63
2022-08-17T12:39:14.139Z,3.40
2022-08-17T12:42:01.934Z,5.57
2022-08-17T12:44:36.091Z,3.15
2022-08-17T12:47:21.951Z,5.50
2022-08-17T12:49:53.063Z,2.65
2022-08-17T12:52:20.362Z,4.47
2022-08-17T12:55:01.148Z,3.97
2022-08-17T12:57:42.733Z,2.55
2022-08-17T13:00:47.483Z,3.03
2022-08-17T13:03:22.175Z,6.13
2022-08-17T13:06:01.204Z,4.60
2022-08-17T13:08:35.618Z,3.80
2022-08-17T13:11:28.959Z,7.57
2022-08-17T13:14:08.589Z,6.18
2022-08-17T13:16:36.398Z,5.70
2022-08-17T13:19:15.258Z,4.45
2022-08-17T13:21:50.701Z,6.72
2022-08-17T13:24:21.713Z,5.68
2022-08-17T13:27:07.902Z,3.95
2022-08-17T13:29:39.721Z,4.88
2022-08-17T13:32:11.560Z,7.78
2022-08-17T13:35:12.198Z,9.40
2022-08-17T13:37:35.667Z,4.13
2022-08-17T13:40:08.866Z,5.22
2022-08-17T13:42:56.671Z,3.72
2022-08-17T13:45:39.518Z,4.40
2022-08-17T13:48:13.794Z,5.18
2022-08-17T13:50:56.716Z,2.53
2022-08-17T13:53:34.417Z,9.98
2022-08-17T13:56:07.444Z,2.63
2022-08-17T13:59:00.388Z,5.82
2022-08-17T14:01:34.388Z,4.55
2022-08-17T14:04:07.075Z,2.42
2022-08-17T14:06:52.095Z,2.58
2022-08-17T14:09:23.275Z,4.55
2022-08-17T14:11:54.023Z,5.82
2022-08-17T14:14:23.373Z,2.75
2022-08-17T14:16:52.077Z,4.22
2022-08-17T14:19:21.979Z,5.43
2022-08-17T14:21:50.249Z,2.42
2022-08-17T14:24:44.477Z,4.13
2022-08-17T14:27:17.730Z,11.88
2022-08-17T14:29:45.445Z,5.30
2022-08-17T14:32:23.093Z,2.72
2022-08-17T14:34:51.083Z,3.53
2022-08-17T14:37:22.083Z,3.88
2022-08-17T14:39:49.606Z,8.32
2022-08-17T14:42:17.679Z,5.40
2022-08-17T14:44:45.099Z,2.70
2022-08-17T14:47:15.079Z,3.50
2022-08-17T14:49:42.421Z,3.95
2022-08-17T14:52:13.662Z,2.85
2022-08-17T14:54:45.554Z,2.75
2022-08-17T14:57:23.804Z,3.13
2022-08-17T15:00:01.464Z,2.50
2022-08-17T15:02:30.933Z,4.68
2022-08-17T15:05:04.695Z,3.10
2022-08-17T15:07:32.759Z,5.05
2022-08-17T15:10:02.077Z,2.47
2022-08-17T15:12:34.056Z,3.25
2022-08-17T15:15:05.511Z,3.70
2022-08-17T15:17:45.063Z,3.17
2022-08-17T15:20:21.656Z,3.88
2022-08-17T15:23:00.166Z,4.75
2022-08-17T15:25:30.406Z,15.65
2022-08-17T15:27:58.600Z,53.28
2022-08-17T15:30:27.290Z,10.18
2022-08-17T15:32:56.885Z,8.80
2022-08-17T15:35:30.691Z,3.97
2022-08-17T15:38:09.849Z,6.00
2022-08-17T15:40:44.942Z,7.00
2022-08-17T15:43:16.169Z,4.63
2022-08-17T15:45:44.458Z,3.95
2022-08-17T15:48:24.118Z,2.80
2022-08-17T15:50:51.598Z,3.97
2022-08-17T15:53:18.830Z,4.93
2022-08-17T15:55:46.213Z,2.40
2022-08-17T15:58:13.457Z,3.15
2022-08-17T16:00:49.441Z,2.85
2022-08-17T16:03:59.314Z,3.30
2022-08-17T16:06:08.949Z,4.38
2022-08-17T16:08:39.371Z,2.40
2022-08-17T16:11:08.131Z,4.70
2022-08-17T16:13:35.567Z,2.95
2022-08-17T16:16:03.082Z,6.65
2022-08-17T16:18:31.781Z,5.95
2022-08-17T16:21:21.837Z,3.35
2022-08-17T16:23:51.558Z,3.78
2022-08-17T16:26:19.598Z,4.53
2022-08-17T16:28:47.527Z,4.28
2022-08-17T16:31:14.996Z,5.40
2022-08-17T16:33:43.975Z,5.72
2022-08-17T16:36:31.346Z,7.90
2022-08-17T16:38:59.355Z,4.07
2022-08-17T16:41:44.406Z,7.10
2022-08-17T16:44:18.263Z,6.25
2022-08-17T16:46:47.442Z,20.40
2022-08-17T16:49:35.195Z,15.90
2022-08-17T16:52:04.564Z,17.52
2022-08-17T16:54:32.059Z,10.82
2022-08-17T16:56:59.361Z,6.65
2022-08-17T16:59:31.362Z,11.20
2022-08-17T17:02:11.274Z,30.05
2022-08-17T17:04:52.493Z,15.65
2022-08-17T17:07:49.748Z,20.25
2022-08-17T17:10:39.266Z,26.17
2022-08-17T17:13:13.533Z,17.88
2022-08-17T17:16:01.362Z,19.58
2022-08-17T17:18:58.196Z,12.25
2022-08-17T17:21:36.093Z,19.90
2022-08-17T17:24:14.596Z,10.68
2022-08-17T17:27:11.225Z,14.30
2022-08-17T17:30:00.876Z,8.60
2022-08-17T17:32:49.767Z,10.77
2022-08-17T17:35:33.231Z,21.70
2022-08-17T17:38:08.239Z,46.30
2022-08-17T17:41:04.576Z,43.10
2022-08-17T17:43:39.731Z,41.78
2022-08-17T17:46:43.119Z,55.15
2022-08-17T17:49:11.385Z,27.92
2022-08-17T17:52:09.263Z,24.13
2022-08-17T17:54:38.226Z,21.08
2022-08-17T17:57:26.646Z,14.18
2022-08-17T18:00:16.270Z,13.40
2022-08-17T18:03:01.648Z,11.13
2022-08-17T18:05:38.796Z,14.73
2022-08-17T18:08:21.670Z,13.95
2022-08-17T18:11:24.623Z,11.70
2022-08-17T18:13:58.712Z,10.98
2022-08-17T18:16:29.783Z,10.60
2022-08-17T18:19:00.535Z,9.82
2022-08-17T18:21:40.072Z,7.40
2022-08-17T18:24:10.667Z,8.52
2022-08-17T18:26:44.646Z,8.98
2022-08-17T18:29:36.580Z,6.68
2022-08-17T18:32:07.543Z,6.60
2022-08-17T18:34:47.028Z,4.53
2022-08-17T18:37:31.661Z,6.88
2022-08-17T18:39:59.214Z,4.82
2022-08-17T18:42:32.259Z,7.18
2022-08-17T18:45:01.077Z,5.28
2022-08-17T18:47:29.767Z,9.88
2022-08-17T18:50:18.753Z,6.28
2022-08-17T18:52:48.742Z,7.55
2022-08-17T18:55:22.594Z,34.65
2022-08-17T18:57:56.061Z,20.48
2022-08-17T19:00:47.482Z,53.65
2022-08-17T19:03:26.899Z,64.18
2022-08-17T19:06:17.268Z,28.02
2022-08-17T19:08:44.768Z,11.00
2022-08-17T19:11:32.895Z,11.90
2022-08-17T19:14:06.245Z,7.88
2022-08-17T19:17:14.909Z,8.27
2022-08-17T19:19:57.790Z,5.47
2022-08-17T19:22:36.717Z,5.97
2022-08-17T19:25:16.913Z,13.68
2022-08-17T19:28:23.093Z,13.10
2022-08-17T19:30:57.432Z,12.32
2022-08-17T19:33:25.456Z,21.05
2022-08-17T19:36:06.542Z,15.38
2022-08-17T19:38:39.786Z,7.95
2022-08-17T19:41:31.654Z,6.88
2022-08-17T19:44:40.428Z,9.38
2022-08-17T19:47:36.291Z,8.98
2022-08-17T19:50:18.964Z,12.88
2022-08-17T19:53:05.936Z,12.30
2022-08-17T19:55:43.744Z,13.57
2022-08-17T19:58:26.672Z,15.80
2022-08-17T20:00:55.403Z,16.98
2022-08-17T20:03:52.187Z,16.20
2022-08-17T20:06:22.309Z,17.65
2022-08-17T20:09:15.197Z,21.48
2022-08-17T20:11:49.337Z,16.50
2022-08-17T20:14:31.709Z,15.57
2022-08-17T20:17:02.948Z,16.23
2022-08-17T20:20:08.451Z,10.13
2022-08-17T20:22:59.684Z,16.27
2022-08-17T20:26:05.100Z,12.43
2022-08-17T20:28:39.235Z,18.73
2022-08-17T20:31:46.923Z,10.60
2022-08-17T20:34:36.771Z,9.68
2022-08-17T20:37:28.366Z,7.85
2022-08-17T20:39:55.934Z,7.78
2022-08-17T20:42:23.490Z,10.98
2022-08-17T20:44:58.287Z,6.15
2022-08-17T20:47:50.459Z,15.23
2022-08-17T20:50:43.744Z,7.05
2022-08-17T20:53:33.074Z,5.95
2022-08-17T20:56:00.447Z,8.68
2022-08-17T20:58:31.409Z,8.05
2022-08-17T21:00:59.077Z,9.68
2022-08-17T21:03:49.175Z,6.13
2022-08-17T21:06:21.762Z,5.78
2022-08-17T21:08:55.148Z,8.77
2022-08-17T21:12:02.867Z,8.75
2022-08-17T21:14:36.739Z,10.43
2022-08-17T21:17:39.738Z,8.25
2022-08-17T21:20:14.885Z,9.07
2022-08-17T21:23:13.152Z,9.07
2022-08-17T21:25:48.299Z,8.07
2022-08-17T21:29:00.505Z,7.70
2022-08-17T21:31:38.967Z,11.18
2022-08-17T21:34:15.448Z,14.02
2022-08-17T21:36:45.500Z,17.10
2022-08-17T21:39:17.177Z,15.85
2022-08-17T21:41:57.431Z,12.57
2022-08-17T21:44:38.284Z,9.57
2022-08-17T21:47:27.184Z,17.25
2022-08-17T21:49:56.007Z,11.27
2022-08-17T21:52:27.459Z,11.98
2022-08-17T21:55:02.511Z,10.68
2022-08-17T21:57:32.750Z,8.15
2022-08-17T22:00:16.478Z,8.45
2022-08-17T22:02:44.004Z,7.47
2022-08-17T22:05:14.160Z,6.82
2022-08-17T22:07:50.936Z,7.25
2022-08-17T22:10:40.317Z,8.18
2022-08-17T22:13:18.588Z,6.55
2022-08-17T22:16:15.390Z,5.03
2022-08-17T22:18:58.319Z,5.00
2022-08-17T22:21:26.281Z,5.20
2022-08-17T22:24:06.459Z,7.90
2022-08-17T22:27:01.664Z,8.32
2022-08-17T22:29:47.800Z,5.45
2022-08-17T22:32:37.505Z,7.72
2022-08-17T22:35:26.279Z,5.20
2022-08-17T22:37:53.612Z,8.18
2022-08-17T22:40:34.545Z,9.68
2022-08-17T22:43:03.638Z,6.65
2022-08-17T22:45:32.517Z,5.95
2022-08-17T22:48:02.130Z,8.18
2022-08-17T22:50:33.205Z,6.70
2022-08-17T22:53:34.593Z,5.70
2022-08-17T22:56:20.581Z,4.93
2022-08-17T22:59:17.891Z,5.07
2022-08-17T23:02:05.270Z,5.35
2022-08-17T23:04:38.060Z,5.57
2022-08-17T23:07:09.022Z,5.72
2022-08-17T23:09:36.834Z,4.90
2022-08-17T23:12:09.201Z,5.65
2022-08-17T23:14:42.494Z,5.15
2022-08-17T23:17:10.069Z,6.63
2022-08-17T23:19:37.775Z,8.15
2022-08-17T23:22:08.561Z,5.13
2022-08-17T23:24:42.639Z,6.38
2022-08-17T23:27:13.510Z,8.43
2022-08-17T23:29:42.242Z,7.50
2022-08-17T23:32:13.611Z,7.50
2022-08-17T23:34:42.552Z,10.98
2022-08-17T23:37:12.920Z,5.22
2022-08-17T23:39:40.413Z,6.28
2022-08-17T23:42:10.733Z,6.30
2022-08-17T23:44:40.125Z,5.88
2022-08-17T23:47:07.888Z,5.43
2022-08-17T23:49:36.410Z,5.28
2022-08-17T23:52:09.875Z,5.90
2022-08-17T23:54:43.666Z,5.90
2022-08-17T23:57:17.975Z,8.13
2022-08-17T23:59:45.659Z,5.43
